Time;durP1;ratioP1;P1;durP2;ratioP2;P2;SDS_P1;SDS_P2;PMS_P1;PMS_P2;Temp;Humidity;BMP_temperature;BMP_pressure;BME280_temperature;BME280_humidity;BME280_pressure;Samples;Min_cycle;Max_cycle;Signal;HPM_P1;HPM_P2
2023/01/25 00:00:41;;;;;;;;;;;4.50;94.50;;;;;;5006540;28;19933;-80
2023/01/25 00:03:08;;;;;;;;;;;4.40;94.50;;;;;;5008699;28;19929;-79
2023/01/25 00:05:34;;;;;;;;;;;4.50;94.50;;;;;;5004222;28;21131;-79
2023/01/25 00:08:02;;;;;;;;;;;4.40;94.50;;;;;;5004628;28;20392;-79
2023/01/25 00:10:29;;;;;;;;;;;4.40;94.50;;;;;;5009610;28;20448;-80
2023/01/25 00:12:55;;;;;;;;;;;4.40;94.50;;;;;;5006484;28;19936;-81
2023/01/25 00:15:22;;;;;;;;;;;4.40;94.50;;;;;;5009954;28;19933;-79
2023/01/25 00:17:48;;;;;;;;;;;4.40;94.50;;;;;;5005258;28;19941;-81
2023/01/25 00:20:15;;;;;;;;;;;4.40;94.50;;;;;;5010236;28;19929;-81
2023/01/25 00:22:42;;;;;;;;;;;4.40;94.50;;;;;;5007356;28;20347;-80
2023/01/25 00:25:10;;;;;;;;;;;4.40;94.50;;;;;;5007360;28;20399;-79
2023/01/25 00:27:37;;;;;;;;;;;4.40;94.60;;;;;;5003372;28;20351;-79
2023/01/25 00:30:03;;;;;;;;;;;4.40;94.60;;;;;;5008719;28;19941;-81
2023/01/25 00:32:40;;;;;;;;;;;4.40;94.60;;;;;;5006583;28;19941;-81
2023/01/25 00:35:08;;;;;;;;;;;4.40;94.60;;;;;;5004428;28;19934;-80
2023/01/25 00:37:36;;;;;;;;;;;4.40;94.60;;;;;;5007070;28;19934;-80
2023/01/25 00:40:03;;;;;;;;;;;4.40;94.60;;;;;;5007190;28;19934;-80
2023/01/25 00:42:31;;;;;;;;;;;4.40;94.60;;;;;;5003859;28;19940;-79
2023/01/25 00:44:58;;;;;;;;;;;4.40;94.60;;;;;;5006766;28;19936;-79
2023/01/25 00:47:24;;;;;;;;;;;4.40;94.60;;;;;;5006658;28;19929;-80
2023/01/25 00:49:51;;;;;;;;;;;4.40;94.60;;;;;;5008519;28;19945;-80
2023/01/25 00:52:18;;;;;;;;;;;4.40;95.00;;;;;;5003583;28;20469;-80
2023/01/25 00:54:44;;;;;;;;;;;4.40;94.70;;;;;;5010410;28;19937;-79
2023/01/25 00:57:11;;;;;;;;;;;4.30;94.70;;;;;;5007806;28;19932;-80
2023/01/25 00:59:43;;;;;;;;;;;4.30;94.70;;;;;;5007897;28;19933;-79
2023/01/25 01:02:10;;;;;;;;;;;4.30;94.70;;;;;;5011649;28;19994;-80
2023/01/25 01:04:36;;;;;;;;;;;4.30;94.70;;;;;;5008878;28;19937;-80
2023/01/25 01:07:03;;;;;;;;;;;4.30;94.70;;;;;;5014789;28;19929;-80
2023/01/25 01:09:29;;;;;;;;;;;4.30;94.70;;;;;;5005308;28;19940;-79
2023/01/25 01:11:56;;;;;;;;;;;4.30;94.70;;;;;;5005799;28;19933;-80
2023/01/25 01:14:23;;;;;;;;;;;4.30;94.70;;;;;;5010141;28;19933;-80
2023/01/25 01:16:50;;;;;;;;;;;4.30;94.80;;;;;;5013086;28;19933;-80
2023/01/25 01:19:17;;;;;;;;;;;4.30;94.80;;;;;;5010913;28;19936;-81
2023/01/25 01:21:44;;;;;;;;;;;4.30;94.80;;;;;;5008539;28;19960;-79
2023/01/25 01:24:10;;;;;;;;;;;4.30;94.80;;;;;;5011067;28;19939;-79
2023/01/25 01:26:37;;;;;;;;;;;4.30;94.80;;;;;;5007484;28;19929;-80
2023/01/25 01:29:04;;;;;;;;;;;4.30;94.80;;;;;;5011319;28;19934;-81
2023/01/25 01:31:30;;;;;;;;;;;4.20;94.80;;;;;;5010308;28;19933;-80
2023/01/25 01:33:58;;;;;;;;;;;4.30;94.80;;;;;;5007676;28;19937;-79
2023/01/25 01:36:26;;;;;;;;;;;4.30;94.80;;;;;;5007956;28;20665;-80
2023/01/25 01:38:52;;;;;;;;;;;4.30;94.90;;;;;;5008062;28;20413;-79
2023/01/25 01:41:19;;;;;;;;;;;4.20;94.80;;;;;;5009261;28;19930;-80
2023/01/25 01:43:46;;;;;;;;;;;4.30;94.90;;;;;;5009043;28;19929;-79
2023/01/25 01:46:14;;;;;;;;;;;4.20;94.80;;;;;;5007125;28;20495;-81
2023/01/25 01:48:44;;;;;;;;;;;4.20;94.90;;;;;;5005387;28;19933;-79
2023/01/25 01:51:14;;;;;;;;;;;4.20;94.90;;;;;;5004606;28;19929;-79
2023/01/25 01:53:42;;;;;;;;;;;4.20;94.90;;;;;;5006580;28;20427;-79
2023/01/25 01:56:11;;;;;;;;;;;4.20;94.90;;;;;;5002118;28;19937;-81
2023/01/25 01:58:37;;;;;;;;;;;4.20;94.90;;;;;;5003632;28;19937;-78
2023/01/25 02:01:04;;;;;;;;;;;4.20;94.90;;;;;;5006912;28;19933;-79
2023/01/25 02:03:31;;;;;;;;;;;4.20;94.90;;;;;;5004835;28;19959;-79
2023/01/25 02:06:00;;;;;;;;;;;4.20;94.90;;;;;;5006929;28;19984;-78
2023/01/25 02:08:30;;;;;;;;;;;4.20;95.00;;;;;;5009448;28;19934;-80
2023/01/25 02:10:57;;;;;;;;;;;4.20;95.00;;;;;;5002588;28;19934;-77
2023/01/25 02:13:24;;;;;;;;;;;4.20;95.00;;;;;;5007245;28;19929;-78
2023/01/25 02:15:51;;;;;;;;;;;4.10;94.90;;;;;;5004923;28;19999;-78
2023/01/25 02:18:18;;;;;;;;;;;4.20;95.00;;;;;;5008232;28;19979;-78
2023/01/25 02:20:45;;;;;;;;;;;4.10;95.00;;;;;;5002715;28;20426;-79
2023/01/25 02:23:16;;;;;;;;;;;4.20;95.00;;;;;;5008315;28;19933;-78
2023/01/25 02:25:44;;;;;;;;;;;4.10;95.00;;;;;;5004173;28;19996;-79
2023/01/25 02:28:14;;;;;;;;;;;4.10;95.00;;;;;;5002122;28;19933;-79
2023/01/25 02:30:41;;;;;;;;;;;4.10;95.00;;;;;;5011616;28;20035;-78
2023/01/25 02:33:07;;;;;;;;;;;4.10;95.00;;;;;;5011682;28;19929;-78
2023/01/25 02:35:36;;;;;;;;;;;4.10;95.10;;;;;;5002161;28;19934;-78
2023/01/25 02:38:04;;;;;;;;;;;4.10;95.10;;;;;;5005513;28;20407;-79
2023/01/25 02:40:31;;;;;;;;;;;4.10;95.10;;;;;;5006382;28;20498;-80
2023/01/25 02:42:59;;;;;;;;;;;4.10;95.10;;;;;;5005900;28;20373;-79
2023/01/25 02:45:28;;;;;;;;;;;4.10;95.10;;;;;;5003124;28;19933;-78
2023/01/25 02:47:55;;;;;;;;;;;4.10;95.10;;;;;;5004982;28;19933;-79
2023/01/25 02:50:21;;;;;;;;;;;4.10;95.10;;;;;;5007162;28;19937;-78
2023/01/25 02:52:48;;;;;;;;;;;4.10;95.10;;;;;;5008752;28;19988;-78
2023/01/25 02:55:14;;;;;;;;;;;4.10;95.10;;;;;;5008007;28;19933;-78
2023/01/25 02:57:41;;;;;;;;;;;4.10;95.10;;;;;;5005426;28;19933;-79
2023/01/25 03:00:10;;;;;;;;;;;4.10;95.20;;;;;;5003477;28;19930;-79
2023/01/25 03:02:36;;;;;;;;;;;4.10;95.10;;;;;;5006234;28;19933;-78
2023/01/25 03:05:03;;;;;;;;;;;4.10;95.20;;;;;;5003088;28;19979;-79
2023/01/25 03:07:29;;;;;;;;;;;4.10;95.20;;;;;;5008813;28;20454;-80
2023/01/25 03:09:56;;;;;;;;;;;4.10;95.20;;;;;;5006263;28;19930;-77
2023/01/25 03:12:22;;;;;;;;;;;4.10;95.20;;;;;;5004259;28;19932;-78
2023/01/25 03:14:49;;;;;;;;;;;4.00;95.20;;;;;;5001716;28;19929;-79
2023/01/25 03:17:17;;;;;;;;;;;4.10;95.20;;;;;;5009182;28;19928;-79
2023/01/25 03:19:43;;;;;;;;;;;4.10;95.20;;;;;;5006990;28;20288;-80
2023/01/25 03:22:10;;;;;;;;;;;4.00;95.20;;;;;;5003073;28;20564;-78
2023/01/25 03:24:36;;;;;;;;;;;4.00;95.20;;;;;;5006088;28;19933;-78
2023/01/25 03:27:13;;;;;;;;;;;4.00;95.20;;;;;;5005633;28;19961;-78
2023/01/25 03:29:39;;;;;;;;;;;4.00;95.20;;;;;;5009771;28;19929;-79
2023/01/25 03:32:06;;;;;;;;;;;4.00;95.30;;;;;;5003398;28;19929;-81
2023/01/25 03:34:34;;;;;;;;;;;4.00;95.30;;;;;;5004943;28;20362;-78
2023/01/25 03:37:01;;;;;;;;;;;4.00;95.30;;;;;;5007042;28;20332;-80
2023/01/25 03:39:27;;;;;;;;;;;4.00;95.30;;;;;;5006688;28;20518;-78
2023/01/25 03:41:54;;;;;;;;;;;4.00;95.30;;;;;;5005551;28;19995;-79
2023/01/25 03:44:20;;;;;;;;;;;4.00;95.30;;;;;;5008235;28;21549;-78
2023/01/25 03:46:47;;;;;;;;;;;4.00;95.30;;;;;;5001137;28;19937;-79
2023/01/25 03:49:14;;;;;;;;;;;4.00;95.30;;;;;;5010046;28;19936;-79
2023/01/25 03:51:41;;;;;;;;;;;4.00;95.30;;;;;;5004991;28;19936;-78
2023/01/25 03:54:09;;;;;;;;;;;4.00;95.30;;;;;;5007954;28;20008;-78
2023/01/25 03:56:35;;;;;;;;;;;4.00;95.30;;;;;;5002225;28;19946;-78
2023/01/25 03:59:02;;;;;;;;;;;4.00;95.40;;;;;;5005209;28;20355;-78
2023/01/25 04:01:28;;;;;;;;;;;4.00;95.40;;;;;;5000938;28;19936;-78
2023/01/25 04:03:55;;;;;;;;;;;3.90;95.30;;;;;;5003895;28;20457;-79
2023/01/25 04:06:22;;;;;;;;;;;4.00;95.40;;;;;;5006274;28;19938;-79
2023/01/25 04:08:50;;;;;;;;;;;4.00;95.40;;;;;;5003563;28;19929;-78
2023/01/25 04:11:16;;;;;;;;;;;4.00;95.40;;;;;;5006209;28;19929;-79
2023/01/25 04:13:43;;;;;;;;;;;4.00;95.40;;;;;;5006054;28;20333;-78
2023/01/25 04:16:10;;;;;;;;;;;3.90;95.40;;;;;;5003042;28;19937;-78
2023/01/25 04:18:37;;;;;;;;;;;4.00;95.50;;;;;;5002273;28;20299;-79
2023/01/25 04:21:03;;;;;;;;;;;3.90;95.50;;;;;;5000749;28;19930;-79
2023/01/25 04:23:30;;;;;;;;;;;3.90;95.50;;;;;;5004653;28;19960;-79
2023/01/25 04:25:58;;;;;;;;;;;3.90;95.50;;;;;;5004948;28;19929;-79
2023/01/25 04:28:25;;;;;;;;;;;3.90;95.50;;;;;;5005100;28;20419;-78
2023/01/25 04:30:52;;;;;;;;;;;3.90;95.50;;;;;;5004047;28;19933;-79
2023/01/25 04:33:19;;;;;;;;;;;3.90;95.50;;;;;;5000950;28;19937;-78
2023/01/25 04:35:46;;;;;;;;;;;3.90;95.50;;;;;;5005526;28;19958;-79
2023/01/25 04:38:13;;;;;;;;;;;3.90;95.60;;;;;;5003163;28;20406;-79
2023/01/25 04:40:39;;;;;;;;;;;3.90;95.60;;;;;;5005351;28;19929;-78
2023/01/25 04:43:07;;;;;;;;;;;3.90;95.60;;;;;;5004175;28;19933;-78
2023/01/25 04:45:35;;;;;;;;;;;3.90;95.70;;;;;;5006085;28;19944;-78
2023/01/25 04:48:02;;;;;;;;;;;3.90;95.70;;;;;;5006258;28;19929;-78
2023/01/25 04:50:28;;;;;;;;;;;3.90;95.70;;;;;;5005379;28;19957;-79
2023/01/25 04:52:55;;;;;;;;;;;3.90;96.00;;;;;;5006537;28;19940;-79
2023/01/25 04:55:21;;;;;;;;;;;3.90;95.70;;;;;;5009935;28;20354;-77
2023/01/25 04:57:49;;;;;;;;;;;3.90;95.80;;;;;;5005735;28;19936;-77
2023/01/25 05:00:17;;;;;;;;;;;3.80;95.80;;;;;;5009949;28;19940;-79
2023/01/25 05:02:44;;;;;;;;;;;3.80;95.80;;;;;;5011939;28;19925;-78
2023/01/25 05:05:11;;;;;;;;;;;3.80;95.80;;;;;;5005303;28;19940;-78
2023/01/25 05:07:38;;;;;;;;;;;3.80;95.80;;;;;;5000315;28;19929;-79
2023/01/25 05:10:05;;;;;;;;;;;3.80;95.80;;;;;;5006677;28;19933;-79
2023/01/25 05:12:32;;;;;;;;;;;3.80;95.80;;;;;;5011787;28;19930;-79
2023/01/25 05:14:58;;;;;;;;;;;3.80;95.80;;;;;;5006911;28;19995;-78
2023/01/25 05:17:26;;;;;;;;;;;3.80;95.80;;;;;;5002911;28;19929;-78
2023/01/25 05:19:53;;;;;;;;;;;3.80;95.80;;;;;;5009275;28;19939;-78
2023/01/25 05:22:20;;;;;;;;;;;3.80;95.90;;;;;;5005885;28;19935;-79
2023/01/25 05:24:47;;;;;;;;;;;3.80;95.90;;;;;;5009368;28;19936;-78
2023/01/25 05:27:14;;;;;;;;;;;3.80;95.90;;;;;;5003907;28;19937;-79
2023/01/25 05:29:41;;;;;;;;;;;3.80;95.90;;;;;;5007673;28;19936;-80
2023/01/25 05:32:08;;;;;;;;;;;3.80;95.90;;;;;;5006129;28;19936;-79
2023/01/25 05:34:36;;;;;;;;;;;3.80;96.00;;;;;;5010972;28;19929;-77
2023/01/25 05:37:03;;;;;;;;;;;3.80;96.00;;;;;;5005540;28;19941;-78
2023/01/25 05:39:30;;;;;;;;;;;3.80;96.00;;;;;;5009007;28;19940;-78
2023/01/25 05:41:56;;;;;;;;;;;3.70;96.00;;;;;;5003053;28;19937;-78
2023/01/25 05:44:23;;;;;;;;;;;3.80;96.00;;;;;;5006673;28;19937;-77
2023/01/25 05:46:50;;;;;;;;;;;3.70;96.00;;;;;;5004856;28;19929;-80
2023/01/25 05:49:16;;;;;;;;;;;3.70;96.00;;;;;;5005378;28;19937;-78
2023/01/25 05:51:45;;;;;;;;;;;3.70;96.00;;;;;;5007989;28;20326;-78
2023/01/25 05:54:12;;;;;;;;;;;3.70;96.00;;;;;;5008022;28;19933;-78
2023/01/25 05:56:38;;;;;;;;;;;3.70;96.00;;;;;;4999962;28;19999;-79
2023/01/25 05:59:05;;;;;;;;;;;3.70;96.00;;;;;;5008728;28;19933;-78
2023/01/25 06:01:31;;;;;;;;;;;3.70;96.00;;;;;;5002482;28;20229;-80
2023/01/25 06:03:58;;;;;;;;;;;3.70;96.00;;;;;;5001378;28;19929;-78
2023/01/25 06:06:25;;;;;;;;;;;3.70;96.00;;;;;;5006238;28;19926;-79
2023/01/25 06:08:53;;;;;;;;;;;3.70;96.00;;;;;;5000977;28;19929;-78
2023/01/25 06:11:20;;;;;;;;;;;3.70;96.00;;;;;;5006414;28;19926;-77
2023/01/25 06:13:47;;;;;;;;;;;3.60;95.70;;;;;;5004986;28;19941;-79
2023/01/25 06:16:14;;;;;;;;;;;3.50;95.70;;;;;;5005346;28;19933;-78
2023/01/25 06:18:41;;;;;;;;;;;3.40;96.20;;;;;;5003880;28;20025;-78
2023/01/25 06:21:07;;;;;;;;;;;3.30;96.60;;;;;;5004236;28;19983;-80
2023/01/25 06:23:34;;;;;;;;;;;3.30;96.80;;;;;;5003123;28;20438;-79
2023/01/25 06:26:03;;;;;;;;;;;3.30;96.90;;;;;;5005470;28;20387;-78
2023/01/25 06:28:30;;;;;;;;;;;3.30;97.00;;;;;;5007648;28;19941;-80
2023/01/25 06:31:03;;;;;;;;;;;3.30;97.00;;;;;;5001528;28;20019;-73
2023/01/25 06:33:30;;;;;;;;;;;3.40;97.10;;;;;;5005130;28;20325;-72
2023/01/25 06:35:59;;;;;;;;;;;3.40;97.00;;;;;;5000030;28;20648;-74
2023/01/25 06:38:25;;;;;;;;;;;3.40;97.00;;;;;;5003426;28;19933;-72
2023/01/25 06:40:52;;;;;;;;;;;3.40;96.90;;;;;;5003159;28;20009;-73
2023/01/25 06:43:20;;;;;;;;;;;3.40;96.90;;;;;;5004690;28;19929;-72
2023/01/25 06:45:46;;;;;;;;;;;3.50;96.90;;;;;;4998197;28;20306;-72
2023/01/25 06:48:13;;;;;;;;;;;3.40;96.90;;;;;;5001686;28;19936;-72
2023/01/25 06:50:39;;;;;;;;;;;3.50;96.90;;;;;;5000677;28;20396;-72
2023/01/25 06:53:06;;;;;;;;;;;3.50;96.80;;;;;;5004322;28;19936;-72
2023/01/25 06:55:32;;;;;;;;;;;3.50;96.80;;;;;;5002338;28;19934;-72
2023/01/25 06:58:00;;;;;;;;;;;3.50;96.80;;;;;;5002405;28;19951;-72
2023/01/25 07:00:28;;;;;;;;;;;3.50;96.80;;;;;;5001428;28;19976;-72
2023/01/25 07:02:54;;;;;;;;;;;3.40;96.80;;;;;;4998899;28;19948;-72
2023/01/25 07:05:22;;;;;;;;;;;3.50;96.90;;;;;;5002120;28;19936;-71
2023/01/25 07:07:49;;;;;;;;;;;3.50;96.80;;;;;;5000571;28;19936;-79
2023/01/25 07:10:16;;;;;;;;;;;3.50;96.80;;;;;;5002876;28;19929;-78
2023/01/25 07:12:42;;;;;;;;;;;3.50;96.80;;;;;;5003781;28;19937;-80
2023/01/25 07:15:09;;;;;;;;;;;3.50;96.80;;;;;;5004579;28;19980;-79
2023/01/25 07:17:37;;;;;;;;;;;3.50;96.80;;;;;;5003335;28;19930;-79
2023/01/25 07:20:04;;;;;;;;;;;3.50;96.80;;;;;;5004546;28;19941;-80
2023/01/25 07:22:30;;;;;;;;;;;3.50;96.80;;;;;;5005628;28;20449;-79
2023/01/25 07:24:57;;;;;;;;;;;3.50;96.80;;;;;;5004511;28;19933;-79
2023/01/25 07:27:24;;;;;;;;;;;3.40;96.70;;;;;;5004845;28;19998;-79
2023/01/25 07:29:51;;;;;;;;;;;3.40;96.70;;;;;;5002610;28;20306;-80
2023/01/25 07:32:17;;;;;;;;;;;3.40;96.70;;;;;;4996854;28;19987;-78
2023/01/25 07:34:45;;;;;;;;;;;3.40;96.70;;;;;;5000856;28;20541;-79
2023/01/25 07:37:12;;;;;;;;;;;3.40;96.70;;;;;;5004119;28;19925;-79
2023/01/25 07:39:46;;;;;;;;;;;3.40;96.80;;;;;;4999974;28;20389;-79
2023/01/25 07:42:12;;;;;;;;;;;3.40;96.80;;;;;;5002887;28;19930;-78
2023/01/25 07:44:39;;;;;;;;;;;3.40;96.80;;;;;;5000018;28;19964;-78
2023/01/25 07:47:06;;;;;;;;;;;3.40;96.90;;;;;;5003551;28;19930;-78
2023/01/25 07:49:32;;;;;;;;;;;3.40;96.90;;;;;;4998561;28;19929;-80
2023/01/25 07:52:00;;;;;;;;;;;3.40;96.90;;;;;;5002077;28;19929;-80
2023/01/25 07:54:27;;;;;;;;;;;3.40;96.90;;;;;;5002503;28;20707;-79
2023/01/25 07:56:53;;;;;;;;;;;3.40;96.90;;;;;;5001430;28;20359;-78
2023/01/25 07:59:20;;;;;;;;;;;3.40;96.90;;;;;;4997347;28;19929;-79
2023/01/25 08:01:46;;;;;;;;;;;3.40;96.90;;;;;;5000167;28;20371;-78
2023/01/25 08:04:13;;;;;;;;;;;3.40;96.90;;;;;;5003104;28;19938;-78
2023/01/25 08:06:39;;;;;;;;;;;3.40;96.90;;;;;;5000989;28;19936;-81
2023/01/25 08:09:08;;;;;;;;;;;3.40;96.90;;;;;;5001218;28;20020;-78
2023/01/25 08:11:35;;;;;;;;;;;3.40;96.90;;;;;;4999772;28;19960;-79
2023/01/25 08:14:02;;;;;;;;;;;3.40;96.90;;;;;;5003526;28;19940;-79
2023/01/25 08:16:29;;;;;;;;;;;3.40;96.90;;;;;;4999817;28;19930;-78
2023/01/25 08:18:56;;;;;;;;;;;3.40;96.90;;;;;;5009075;28;19930;-78
2023/01/25 08:21:24;;;;;;;;;;;3.40;96.90;;;;;;5006435;28;19933;-78
2023/01/25 08:23:51;;;;;;;;;;;3.40;96.90;;;;;;5003527;28;19936;-76
2023/01/25 08:26:19;;;;;;;;;;;3.40;96.90;;;;;;5003775;28;19929;-73
2023/01/25 08:28:46;;;;;;;;;;;3.40;96.90;;;;;;5006742;28;19933;-72
2023/01/25 08:31:13;;;;;;;;;;;3.40;96.90;;;;;;5002809;28;19929;-73
2023/01/25 08:33:41;;;;;;;;;;;3.40;96.90;;;;;;5007074;28;19944;-73
2023/01/25 08:36:08;;;;;;;;;;;3.40;96.90;;;;;;5007873;28;19933;-73
2023/01/25 08:38:34;;;;;;;;;;;3.40;96.90;;;;;;5007754;28;20024;-72
2023/01/25 08:41:05;;;;;;;;;;;3.40;96.90;;;;;;5004469;28;19926;-73
2023/01/25 08:43:33;;;;;;;;;;;3.40;97.00;;;;;;5006395;28;19940;-73
2023/01/25 08:45:59;;;;;;;;;;;3.40;97.00;;;;;;5003636;28;19972;-73
2023/01/25 08:48:26;;;;;;;;;;;3.40;97.00;;;;;;5006067;28;19930;-73
2023/01/25 08:50:52;;;;;;;;;;;3.40;97.00;;;;;;5005257;28;19937;-75
2023/01/25 08:53:19;;;;;;;;;;;3.40;97.00;;;;;;5004519;28;19934;-73
2023/01/25 08:55:45;;;;;;;;;;;3.40;96.90;;;;;;5009150;28;19930;-73
2023/01/25 08:58:12;;;;;;;;;;;3.40;96.90;;;;;;5003068;28;20324;-73
2023/01/25 09:00:41;;;;;;;;;;;3.40;97.00;;;;;;5004042;28;19934;-73
2023/01/25 09:03:08;;;;;;;;;;;3.40;97.00;;;;;;5007890;28;19971;-71
2023/01/25 09:05:34;;;;;;;;;;;3.40;96.90;;;;;;5000159;28;20415;-72
2023/01/25 09:08:01;;;;;;;;;;;3.40;96.90;;;;;;5001048;28;19937;-73
2023/01/25 09:10:28;;;;;;;;;;;3.40;96.90;;;;;;5007156;28;20308;-73
2023/01/25 09:12:54;;;;;;;;;;;3.40;96.90;;;;;;5007028;28;19955;-76
2023/01/25 09:15:21;;;;;;;;;;;3.40;96.80;;;;;;5002780;28;19945;-78
2023/01/25 09:17:51;;;;;;;;;;;3.40;96.80;;;;;;5008036;28;19929;-82
2023/01/25 09:20:18;;;;;;;;;;;3.40;96.80;;;;;;5001606;28;19944;-78
2023/01/25 09:22:45;;;;;;;;;;;3.40;96.90;;;;;;5001977;28;19965;-77
2023/01/25 09:25:11;;;;;;;;;;;3.30;96.80;;;;;;4999776;28;20025;-79
2023/01/25 09:27:38;;;;;;;;;;;3.30;96.80;;;;;;5003238;28;20443;-77
2023/01/25 09:30:05;;;;;;;;;;;3.40;96.80;;;;;;4999224;28;19937;-81
2023/01/25 09:32:32;;;;;;;;;;;3.40;96.80;;;;;;5007297;28;20335;-78
2023/01/25 09:34:59;;;;;;;;;;;3.30;96.70;;;;;;5005487;28;20309;-79
2023/01/25 09:37:26;;;;;;;;;;;3.40;96.80;;;;;;5006355;28;19933;-78
2023/01/25 09:39:52;;;;;;;;;;;3.40;96.80;;;;;;5008807;28;19972;-79
2023/01/25 09:42:40;;;;;;;;;;;3.40;96.80;;;;;;5004673;28;19934;-76
2023/01/25 09:45:17;;;;;;;;;;;3.40;96.80;;;;;;4982441;28;19933;-76
2023/01/25 09:47:47;;;;;;;;;;;3.40;96.80;;;;;;5001338;28;20368;-80
2023/01/25 09:50:22;;;;;;;;;;;3.40;96.80;;;;;;5004730;28;21258;-77
2023/01/25 09:52:55;;;;;;;;;;;3.40;96.80;;;;;;5003865;28;19960;-78
2023/01/25 09:55:24;;;;;;;;;;;3.40;96.80;;;;;;4995595;28;19939;-77
2023/01/25 09:57:52;;;;;;;;;;;3.40;96.70;;;;;;5003107;28;19941;-78
2023/01/25 10:00:21;;;;;;;;;;;3.40;96.70;;;;;;5000382;28;19956;-76
2023/01/25 10:02:50;;;;;;;;;;;3.40;96.70;;;;;;5006389;28;19929;-78
2023/01/25 10:05:20;;;;;;;;;;;3.40;96.70;;;;;;5010275;28;20417;-76
2023/01/25 10:07:54;;;;;;;;;;;3.40;96.70;;;;;;5001632;28;19937;-78
2023/01/25 10:10:23;;;;;;;;;;;3.40;96.70;;;;;;5001003;28;19983;-78
2023/01/25 10:12:49;;;;;;;;;;;3.40;96.70;;;;;;4999967;28;19934;-78
2023/01/25 10:15:19;;;;;;;;;;;3.40;96.70;;;;;;5000145;28;19933;-79
2023/01/25 10:17:49;;;;;;;;;;;3.40;96.70;;;;;;5000506;28;20406;-77
2023/01/25 10:20:20;;;;;;;;;;;3.40;96.70;;;;;;5000836;28;20414;-78
2023/01/25 10:22:50;;;;;;;;;;;3.40;96.70;;;;;;5006794;28;19929;-78
2023/01/25 10:25:28;;;;;;;;;;;3.40;96.70;;;;;;5002719;28;19941;-77
2023/01/25 10:28:02;;;;;;;;;;;3.40;96.70;;;;;;5003820;28;20036;-78
2023/01/25 10:30:30;;;;;;;;;;;3.40;96.80;;;;;;5003860;28;20694;-76
2023/01/25 10:32:58;;;;;;;;;;;3.40;96.70;;;;;;4997447;28;19929;-77
2023/01/25 10:35:27;;;;;;;;;;;3.40;96.60;;;;;;5003647;28;20016;-78
2023/01/25 10:37:57;;;;;;;;;;;3.40;96.60;;;;;;5002880;28;19937;-79
2023/01/25 10:40:24;;;;;;;;;;;3.40;96.60;;;;;;5002275;28;19929;-79
2023/01/25 10:42:54;;;;;;;;;;;3.40;96.60;;;;;;5000591;28;19956;-78
2023/01/25 10:45:21;;;;;;;;;;;3.40;96.60;;;;;;5002355;28;19936;-77
2023/01/25 10:47:49;;;;;;;;;;;3.30;96.50;;;;;;5003478;28;19933;-79
2023/01/25 10:50:35;;;;;;;;;;;3.40;96.60;;;;;;5002847;28;20068;-79
2023/01/25 10:53:02;;;;;;;;;;;3.40;96.60;;;;;;5000823;28;20008;-77
2023/01/25 10:55:29;;;;;;;;;;;3.40;96.60;;;;;;5004724;28;19941;-78
2023/01/25 10:57:57;;;;;;;;;;;3.40;96.60;;;;;;5002850;28;19937;-78
2023/01/25 11:00:25;;;;;;;;;;;3.40;96.60;;;;;;4997974;28;20027;-78
2023/01/25 11:02:52;;;;;;;;;;;3.40;96.60;;;;;;4999963;28;19930;-78
2023/01/25 11:05:29;;;;;;;;;;;3.40;96.60;;;;;;5003323;28;19925;-77
2023/01/25 11:07:56;;;;;;;;;;;3.40;96.60;;;;;;4996288;28;20024;-78
2023/01/25 11:10:32;;;;;;;;;;;3.40;96.50;;;;;;5002002;28;19930;-76
2023/01/25 11:13:18;;;;;;;;;;;3.40;96.50;;;;;;5003418;28;19936;-77
2023/01/25 11:15:45;;;;;;;;;;;3.40;96.80;;;;;;5002401;28;19933;-77
2023/01/25 11:18:13;;;;;;;;;;;3.40;96.40;;;;;;5005677;28;19934;-77
2023/01/25 11:20:39;;;;;;;;;;;3.40;96.40;;;;;;5000492;28;19929;-77
2023/01/25 11:23:19;;;;;;;;;;;3.40;96.40;;;;;;5005193;28;19930;-77
2023/01/25 11:25:47;;;;;;;;;;;3.40;96.40;;;;;;5006785;28;19937;-77
2023/01/25 11:28:17;;;;;;;;;;;3.40;96.50;;;;;;5005405;28;19937;-77
2023/01/25 11:30:44;;;;;;;;;;;3.40;96.50;;;;;;5004477;28;19929;-77
2023/01/25 11:33:12;;;;;;;;;;;3.40;96.50;;;;;;5004396;28;19940;-77
2023/01/25 11:35:43;;;;;;;;;;;3.40;96.40;;;;;;5001068;28;20020;-77
2023/01/25 11:38:13;;;;;;;;;;;3.40;96.40;;;;;;5013152;28;19941;-77
2023/01/25 11:40:41;;;;;;;;;;;3.40;96.40;;;;;;5003383;28;19929;-77
2023/01/25 11:43:18;;;;;;;;;;;3.40;96.30;;;;;;5003300;28;19930;-77
2023/01/25 11:45:55;;;;;;;;;;;3.40;96.30;;;;;;5002212;28;20342;-77
2023/01/25 11:48:32;;;;;;;;;;;3.40;96.30;;;;;;5006054;28;19929;-77
2023/01/25 11:51:02;;;;;;;;;;;3.40;96.30;;;;;;4996108;28;19934;-76
2023/01/25 11:53:42;;;;;;;;;;;3.40;96.30;;;;;;5009112;28;19929;-77
2023/01/25 11:56:13;;;;;;;;;;;3.40;96.30;;;;;;5007656;28;20786;-77
2023/01/25 11:58:46;;;;;;;;;;;3.40;96.30;;;;;;5005681;28;19936;-77
2023/01/25 12:01:18;;;;;;;;;;;3.40;96.20;;;;;;5003240;28;19929;-77
2023/01/25 12:04:00;;;;;;;;;;;3.40;96.30;;;;;;5004560;28;19936;-77
2023/01/25 12:06:32;;;;;;;;;;;3.40;96.30;;;;;;5003523;28;19936;-77
2023/01/25 12:09:07;;;;;;;;;;;3.40;96.30;;;;;;5000095;28;19933;-77
2023/01/25 12:11:43;;;;;;;;;;;3.40;96.30;;;;;;5007407;28;19953;-77
2023/01/25 12:14:15;;;;;;;;;;;3.40;96.30;;;;;;5006304;28;19984;-77
2023/01/25 12:16:49;;;;;;;;;;;3.40;96.30;;;;;;5004642;28;19984;-77
2023/01/25 12:19:24;;;;;;;;;;;3.40;96.20;;;;;;5013542;28;19940;-76
2023/01/25 12:21:56;;;;;;;;;;;3.40;96.60;;;;;;4999923;28;19930;-77
2023/01/25 12:24:31;;;;;;;;;;;3.40;96.30;;;;;;5004481;28;19934;-77
2023/01/25 12:27:00;;;;;;;;;;;3.40;96.30;;;;;;5004777;28;19929;-77
2023/01/25 12:29:30;;;;;;;;;;;3.40;96.20;;;;;;5006594;28;19936;-77
2023/01/25 12:31:58;;;;;;;;;;;3.40;96.20;;;;;;5003875;28;19937;-77
2023/01/25 12:34:27;;;;;;;;;;;3.40;96.20;;;;;;5005121;28;19929;-76
2023/01/25 12:36:53;;;;;;;;;;;3.40;96.20;;;;;;5004913;28;20326;-76
2023/01/25 12:39:23;;;;;;;;;;;3.40;96.30;;;;;;4999135;28;19929;-76
2023/01/25 12:41:52;;;;;;;;;;;3.40;96.20;;;;;;4999028;28;19936;-77
2023/01/25 12:44:20;;;;;;;;;;;3.40;96.20;;;;;;5003058;28;19929;-77
2023/01/25 12:46:51;;;;;;;;;;;3.40;96.20;;;;;;5001551;28;20346;-77
2023/01/25 12:49:21;;;;;;;;;;;3.40;96.20;;;;;;5005295;28;19929;-76
2023/01/25 12:51:48;;;;;;;;;;;3.40;96.20;;;;;;5003660;28;19932;-77
2023/01/25 12:54:18;;;;;;;;;;;3.40;96.20;;;;;;5015465;28;20362;-77
2023/01/25 12:56:48;;;;;;;;;;;3.40;96.20;;;;;;5003208;28;19976;-77
2023/01/25 12:59:17;;;;;;;;;;;3.40;96.20;;;;;;5002731;28;19933;-77
2023/01/25 13:01:46;;;;;;;;;;;3.40;96.20;;;;;;5000950;28;19933;-77
2023/01/25 13:04:22;;;;;;;;;;;3.40;96.20;;;;;;5008726;28;20525;-76
2023/01/25 13:06:51;;;;;;;;;;;3.40;96.10;;;;;;5011297;28;20461;-77
2023/01/25 13:09:22;;;;;;;;;;;3.40;96.10;;;;;;5004588;28;20398;-76
2023/01/25 13:11:49;;;;;;;;;;;3.40;96.10;;;;;;5004778;28;19929;-76
2023/01/25 13:14:26;;;;;;;;;;;3.40;96.10;;;;;;5011626;28;19941;-78
2023/01/25 13:16:53;;;;;;;;;;;3.40;96.10;;;;;;4999621;28;19933;-77
2023/01/25 13:19:22;;;;;;;;;;;3.40;96.10;;;;;;5006380;28;19933;-77
2023/01/25 13:21:49;;;;;;;;;;;3.40;96.10;;;;;;5001951;28;19929;-77
2023/01/25 13:24:20;;;;;;;;;;;3.40;96.10;;;;;;5008709;28;19940;-76
2023/01/25 13:26:48;;;;;;;;;;;3.50;96.20;;;;;;5003824;28;19968;-76
2023/01/25 13:29:34;;;;;;;;;;;3.40;96.10;;;;;;5012284;28;19930;-77
2023/01/25 13:32:01;;;;;;;;;;;3.50;96.10;;;;;;5005394;28;19930;-76
2023/01/25 13:34:46;;;;;;;;;;;3.40;96.10;;;;;;5007457;28;19929;-77
2023/01/25 13:37:17;;;;;;;;;;;3.50;96.10;;;;;;5005411;28;19936;-77
2023/01/25 13:39:45;;;;;;;;;;;3.40;96.00;;;;;;5006551;28;20462;-76
2023/01/25 13:42:18;;;;;;;;;;;3.40;96.00;;;;;;5005518;28;19933;-77
2023/01/25 13:44:45;;;;;;;;;;;3.40;96.00;;;;;;5005852;28;20391;-77
2023/01/25 13:47:13;;;;;;;;;;;3.50;96.00;;;;;;5002231;28;20414;-77
2023/01/25 13:49:40;;;;;;;;;;;3.50;96.00;;;;;;5007216;28;20419;-76
2023/01/25 13:52:07;;;;;;;;;;;3.50;96.00;;;;;;5008796;28;19933;-77
2023/01/25 13:54:41;;;;;;;;;;;3.50;95.90;;;;;;5007918;28;19929;-77
2023/01/25 13:57:12;;;;;;;;;;;3.50;95.90;;;;;;5005682;28;19936;-77
2023/01/25 13:59:38;;;;;;;;;;;3.40;95.80;;;;;;5004817;28;19940;-77
2023/01/25 14:02:11;;;;;;;;;;;3.50;95.90;;;;;;5003922;28;19929;-77
2023/01/25 14:04:37;;;;;;;;;;;3.40;95.80;;;;;;5005485;28;19936;-77
2023/01/25 14:07:08;;;;;;;;;;;3.50;95.80;;;;;;5002032;28;19936;-72
2023/01/25 14:09:36;;;;;;;;;;;3.40;95.80;;;;;;5004406;28;19933;-74
2023/01/25 14:12:05;;;;;;;;;;;3.50;95.90;;;;;;5005296;28;19968;-74
2023/01/25 14:14:33;;;;;;;;;;;3.50;95.80;;;;;;5011214;28;19925;-74
2023/01/25 14:17:04;;;;;;;;;;;3.50;95.80;;;;;;5005378;28;20379;-73
2023/01/25 14:19:32;;;;;;;;;;;3.50;95.80;;;;;;5005122;28;19932;-74
2023/01/25 14:22:19;;;;;;;;;;;3.50;95.80;;;;;;5006344;28;19929;-73
2023/01/25 14:24:59;;;;;;;;;;;3.40;95.70;;;;;;4998832;28;19929;-74
2023/01/25 14:27:25;;;;;;;;;;;3.50;95.70;;;;;;5004583;28;19929;-74
2023/01/25 14:29:52;;;;;;;;;;;3.40;95.70;;;;;;5008357;28;19934;-74
2023/01/25 14:32:20;;;;;;;;;;;3.40;95.70;;;;;;5001224;28;19925;-73
2023/01/25 14:34:47;;;;;;;;;;;3.40;95.70;;;;;;5005036;28;19972;-74
2023/01/25 14:37:16;;;;;;;;;;;3.40;95.70;;;;;;5005882;28;19925;-74